createdAt,value
2023-04-16T00:00:55.581Z,1014.09
2023-04-16T00:01:56.610Z,1014.09
2023-04-16T00:02:57.108Z,1014.08
2023-04-16T00:03:57.728Z,1014.09
2023-04-16T00:04:58.235Z,1014.09
2023-04-16T00:05:59.096Z,1014.10
2023-04-16T00:06:59.979Z,1014.08
2023-04-16T00:08:00.860Z,1014.08
2023-04-16T00:09:01.750Z,1014.08
2023-04-16T00:10:02.692Z,1014.09
2023-04-16T00:11:03.529Z,1014.07
2023-04-16T00:12:04.414Z,1014.07
2023-04-16T00:13:05.285Z,1014.06
2023-04-16T00:14:06.172Z,1014.04
2023-04-16T00:15:07.051Z,1014.04
2023-04-16T00:16:07.964Z,1014.04
2023-04-16T00:17:08.875Z,1014.05
2023-04-16T00:18:09.771Z,1014.06
2023-04-16T00:19:10.803Z,1014.07
2023-04-16T00:20:11.179Z,1014.04
2023-04-16T00:21:12.074Z,1014.03
2023-04-16T00:22:12.978Z,1014.03
2023-04-16T00:23:13.843Z,1014.03
2023-04-16T00:24:14.730Z,1014.05
2023-04-16T00:25:15.630Z,1014.06
2023-04-16T00:26:16.488Z,1014.08
2023-04-16T00:27:17.370Z,1014.10
2023-04-16T00:28:18.253Z,1014.09
2023-04-16T00:29:19.152Z,1014.08
2023-04-16T00:30:20.056Z,1014.08
2023-04-16T00:31:20.944Z,1014.08
2023-04-16T00:32:21.817Z,1014.08
2023-04-16T00:33:22.680Z,1014.08
2023-04-16T00:34:23.551Z,1014.09
2023-04-16T00:35:24.472Z,1014.10
2023-04-16T00:36:25.356Z,1014.10
2023-04-16T00:37:26.223Z,1014.11
2023-04-16T00:38:27.101Z,1014.12
2023-04-16T00:39:27.988Z,1014.12
2023-04-16T00:40:28.950Z,1014.14
2023-04-16T00:41:29.765Z,1014.15
2023-04-16T00:42:30.662Z,1014.15
2023-04-16T00:43:31.538Z,1014.15
2023-04-16T00:44:32.416Z,1014.14
2023-04-16T00:45:33.317Z,1014.14
2023-04-16T00:46:34.234Z,1014.14
2023-04-16T00:47:35.117Z,1014.16
2023-04-16T00:48:35.957Z,1014.17
2023-04-16T00:49:36.847Z,1014.19
2023-04-16T00:50:37.727Z,1014.19
2023-04-16T00:51:38.611Z,1014.20
2023-04-16T00:52:39.494Z,1014.18
2023-04-16T00:53:40.374Z,1014.20
2023-04-16T00:54:41.284Z,1014.19
2023-04-16T00:55:42.169Z,1014.19
2023-04-16T00:56:43.030Z,1014.22
2023-04-16T00:57:43.912Z,1014.21
2023-04-16T00:58:44.787Z,1014.22
2023-04-16T00:59:45.702Z,1014.22
2023-04-16T01:00:46.558Z,1014.22
2023-04-16T01:01:47.553Z,1014.22
2023-04-16T01:02:48.527Z,1014.20
2023-04-16T01:03:49.022Z,1014.25
2023-04-16T01:04:49.865Z,1014.30
2023-04-16T01:05:50.759Z,1014.33
2023-04-16T01:06:51.641Z,1014.34
2023-04-16T01:07:52.523Z,1014.35
2023-04-16T01:08:53.383Z,1014.34
2023-04-16T01:09:54.266Z,1014.32
2023-04-16T01:10:55.183Z,1014.31
2023-04-16T01:11:56.044Z,1014.32
2023-04-16T01:12:56.914Z,1014.30
2023-04-16T01:13:57.794Z,1014.31
2023-04-16T01:14:58.668Z,1014.29
2023-04-16T01:15:59.599Z,1014.28
2023-04-16T01:17:00.442Z,1014.30
2023-04-16T01:18:01.388Z,1014.31
2023-04-16T01:19:02.234Z,1014.32
2023-04-16T01:20:03.256Z,1014.31
2023-04-16T01:21:03.618Z,1014.29
2023-04-16T01:22:04.510Z,1014.30
2023-04-16T01:23:05.388Z,1014.30
2023-04-16T01:24:06.285Z,1014.30
2023-04-16T01:25:07.156Z,1014.31
2023-04-16T01:26:08.065Z,1014.29
2023-04-16T01:27:08.913Z,1014.29
2023-04-16T01:28:09.798Z,1014.29
2023-04-16T01:29:10.913Z,1014.30
2023-04-16T01:30:11.401Z,1014.30
2023-04-16T01:31:12.297Z,1014.31
2023-04-16T01:32:13.161Z,1014.31
2023-04-16T01:33:14.050Z,1014.29
2023-04-16T01:34:14.926Z,1014.28
2023-04-16T01:35:15.798Z,1014.30
2023-04-16T01:36:16.687Z,1014.30
2023-04-16T01:37:17.562Z,1014.30
2023-04-16T01:38:18.437Z,1014.29
2023-04-16T01:39:19.320Z,1014.27
2023-04-16T01:40:20.784Z,1014.27
2023-04-16T01:41:21.202Z,1014.25
2023-04-16T01:42:22.046Z,1014.26
2023-04-16T01:43:22.928Z,1014.25
2023-04-16T01:44:23.808Z,1014.25
2023-04-16T01:45:24.682Z,1014.28
2023-04-16T01:46:25.618Z,1014.29
2023-04-16T01:47:26.528Z,1014.31
2023-04-16T01:48:27.361Z,1014.34
2023-04-16T01:49:28.227Z,1014.37
2023-04-16T01:50:29.108Z,1014.36
2023-04-16T01:51:29.998Z,1014.37
2023-04-16T01:52:30.899Z,1014.39
2023-04-16T01:53:31.765Z,1014.42
2023-04-16T01:54:32.644Z,1014.44
2023-04-16T01:55:33.526Z,1014.44
2023-04-16T01:56:34.435Z,1014.46
2023-04-16T01:57:35.287Z,1014.47
2023-04-16T01:58:36.179Z,1014.49
2023-04-16T01:59:37.054Z,1014.49
2023-04-16T02:00:37.959Z,1014.50
2023-04-16T02:01:38.845Z,1014.50
2023-04-16T02:02:39.811Z,1014.49
2023-04-16T02:03:40.439Z,1014.49
2023-04-16T02:04:41.030Z,1014.49
2023-04-16T02:05:41.901Z,1014.48
2023-04-16T02:06:42.789Z,1014.48
2023-04-16T02:07:43.698Z,1014.46
2023-04-16T02:08:44.551Z,1014.49
2023-04-16T02:09:45.424Z,1014.49
2023-04-16T02:10:46.317Z,1014.51
2023-04-16T02:11:47.215Z,1014.52
2023-04-16T02:12:48.086Z,1014.53
2023-04-16T02:13:48.959Z,1014.52
2023-04-16T02:14:49.843Z,1014.53
2023-04-16T02:15:50.723Z,1014.54
2023-04-16T02:16:51.656Z,1014.53
2023-04-16T02:17:52.590Z,1014.53
2023-04-16T02:18:53.486Z,1014.52
2023-04-16T02:19:54.364Z,1014.52
2023-04-16T02:20:55.247Z,1014.52
2023-04-16T02:21:56.150Z,1014.53
2023-04-16T02:22:57.021Z,1014.55
2023-04-16T02:23:57.886Z,1014.56
2023-04-16T02:24:58.778Z,1014.58
2023-04-16T02:25:59.651Z,1014.57
2023-04-16T02:27:00.562Z,1014.57
2023-04-16T02:28:01.465Z,1014.56
2023-04-16T02:29:02.320Z,1014.56
2023-04-16T02:30:03.182Z,1014.56
2023-04-16T02:31:04.048Z,1014.57
2023-04-16T02:32:04.980Z,1014.56
2023-04-16T02:33:05.910Z,1014.56
2023-04-16T02:34:06.751Z,1014.56
2023-04-16T02:35:07.655Z,1014.58
2023-04-16T02:36:08.516Z,1014.57
2023-04-16T02:37:09.416Z,1014.57
2023-04-16T02:38:10.298Z,1014.57
2023-04-16T02:39:11.412Z,1014.59
2023-04-16T02:40:11.867Z,1014.59
2023-04-16T02:41:12.733Z,1014.61
2023-04-16T02:42:13.637Z,1014.61
2023-04-16T02:43:14.495Z,1014.63
2023-04-16T02:44:15.375Z,1014.63
2023-04-16T02:45:16.258Z,1014.65
2023-04-16T02:46:17.163Z,1014.67
2023-04-16T02:47:18.100Z,1014.66
2023-04-16T02:48:18.945Z,1014.67
2023-04-16T02:49:19.819Z,1014.66
2023-04-16T02:50:20.704Z,1014.67
2023-04-16T02:51:21.593Z,1014.69
2023-04-16T02:52:22.478Z,1014.71
2023-04-16T02:53:23.365Z,1014.71
2023-04-16T02:54:24.241Z,1014.74
2023-04-16T02:55:25.123Z,1014.75
2023-04-16T02:56:25.998Z,1014.74
2023-04-16T02:57:26.929Z,1014.72
2023-04-16T02:58:27.788Z,1014.71
2023-04-16T02:59:28.681Z,1014.70
2023-04-16T03:00:29.543Z,1014.71
2023-04-16T03:01:30.482Z,1014.72
2023-04-16T03:02:31.426Z,1014.74
2023-04-16T03:03:32.309Z,1014.74
2023-04-16T03:04:33.290Z,1014.72
2023-04-16T03:05:34.155Z,1014.71
2023-04-16T03:06:35.031Z,1014.71
2023-04-16T03:07:35.920Z,1014.72
2023-04-16T03:08:36.804Z,1014.72
2023-04-16T03:09:37.681Z,1014.73
2023-04-16T03:10:38.559Z,1014.73
2023-04-16T03:11:39.446Z,1014.73
2023-04-16T03:12:40.342Z,1014.73
2023-04-16T03:13:41.195Z,1014.70
2023-04-16T03:14:42.075Z,1014.70
2023-04-16T03:15:42.991Z,1014.70
2023-04-16T03:16:43.854Z,1014.70
2023-04-16T03:17:44.870Z,1014.69
2023-04-16T03:18:45.712Z,1014.71
2023-04-16T03:19:46.594Z,1014.73
2023-04-16T03:20:47.472Z,1014.73
2023-04-16T03:21:48.354Z,1014.74
2023-04-16T03:22:49.245Z,1014.75
2023-04-16T03:23:50.145Z,1014.75
2023-04-16T03:24:51.008Z,1014.76
2023-04-16T03:25:51.881Z,1014.76
2023-04-16T03:26:52.763Z,1014.76
2023-04-16T03:27:53.712Z,1014.78
2023-04-16T03:28:54.525Z,1014.79
2023-04-16T03:29:55.418Z,1014.80
2023-04-16T03:30:56.347Z,1014.82
2023-04-16T03:31:57.202Z,1014.83
2023-04-16T03:32:58.140Z,1014.83
2023-04-16T03:33:58.975Z,1014.82
2023-04-16T03:34:59.857Z,1014.80
2023-04-16T03:36:00.748Z,1014.81
2023-04-16T03:37:01.626Z,1014.79
2023-04-16T03:38:02.505Z,1014.77
2023-04-16T03:39:03.391Z,1014.78
2023-04-16T03:40:04.278Z,1014.77
2023-04-16T03:41:05.171Z,1014.78
2023-04-16T03:42:06.046Z,1014.79
2023-04-16T03:43:06.947Z,1014.80
2023-04-16T03:44:07.799Z,1014.79
2023-04-16T03:45:08.684Z,1014.80
2023-04-16T03:46:09.585Z,1014.81
2023-04-16T03:47:10.442Z,1014.81
2023-04-16T03:48:11.340Z,1014.81
2023-04-16T03:49:12.380Z,1014.83
2023-04-16T03:50:12.738Z,1014.84
2023-04-16T03:51:13.620Z,1014.87
2023-04-16T03:52:14.509Z,1014.90
2023-04-16T03:53:15.394Z,1014.90
2023-04-16T03:54:16.278Z,1014.93
2023-04-16T03:55:17.150Z,1014.94
2023-04-16T03:56:18.030Z,1014.94
2023-04-16T03:57:18.906Z,1014.95
2023-04-16T03:58:19.824Z,1014.95
2023-04-16T03:59:20.679Z,1014.95
2023-04-16T04:00:21.583Z,1014.95
2023-04-16T04:01:22.445Z,1014.94
2023-04-16T04:02:23.536Z,1014.95
2023-04-16T04:03:24.339Z,1014.98
2023-04-16T04:04:24.868Z,1014.97
2023-04-16T04:05:25.292Z,1015.01
2023-04-16T04:06:26.170Z,1015.02
2023-04-16T04:07:27.067Z,1015.02
2023-04-16T04:08:27.943Z,1015.02
2023-04-16T04:09:28.831Z,1015.03
2023-04-16T04:10:29.703Z,1015.05
2023-04-16T04:11:30.600Z,1015.03
2023-04-16T04:12:31.405Z,1015.03
2023-04-16T04:13:32.323Z,1015.01
2023-04-16T04:14:33.180Z,1015.05
2023-04-16T04:15:34.069Z,1015.01
2023-04-16T04:16:34.951Z,1015.03
2023-04-16T04:17:35.803Z,1015.04
2023-04-16T04:18:36.603Z,1015.04
2023-04-16T04:19:40.288Z,1015.06
2023-04-16T04:20:39.146Z,1015.06
2023-04-16T04:21:39.034Z,1015.06
2023-04-16T04:22:39.908Z,1015.05
2023-04-16T04:23:40.819Z,1015.06
2023-04-16T04:24:41.682Z,1015.07
2023-04-16T04:25:42.537Z,1015.06
2023-04-16T04:26:43.348Z,1015.08
2023-04-16T04:27:44.171Z,1015.08
2023-04-16T04:28:45.019Z,1015.09
2023-04-16T04:29:45.846Z,1015.09
2023-04-16T04:30:46.664Z,1015.11
2023-04-16T04:31:47.576Z,1015.12
2023-04-16T04:32:48.470Z,1015.15
2023-04-16T04:33:49.346Z,1015.16
2023-04-16T04:34:50.384Z,1015.17
2023-04-16T04:35:50.653Z,1015.19
2023-04-16T04:36:51.470Z,1015.19
2023-04-16T04:37:52.307Z,1015.20
2023-04-16T04:38:53.134Z,1015.17
2023-04-16T04:39:53.961Z,1015.17
2023-04-16T04:40:54.788Z,1015.20
2023-04-16T04:41:55.613Z,1015.21
2023-04-16T04:42:56.465Z,1015.21
2023-04-16T04:43:57.351Z,1015.22
2023-04-16T04:44:58.107Z,1015.25
2023-04-16T04:45:58.978Z,1015.24
2023-04-16T04:46:59.784Z,1015.24
2023-04-16T04:48:00.650Z,1015.26
2023-04-16T04:49:01.503Z,1015.27
2023-04-16T04:50:02.283Z,1015.28
2023-04-16T04:51:05.037Z,1015.29
2023-04-16T04:52:03.750Z,1015.28
2023-04-16T04:53:04.544Z,1015.28
2023-04-16T04:54:05.375Z,1015.29
2023-04-16T04:55:06.197Z,1015.30
2023-04-16T04:57:07.756Z,1015.32
2023-04-16T04:58:08.602Z,1015.31
2023-04-16T04:59:09.588Z,1015.32
2023-04-16T05:00:10.397Z,1015.33
2023-04-16T05:01:11.298Z,1015.33
2023-04-16T05:02:12.124Z,1015.31
2023-04-16T05:03:12.995Z,1015.32
2023-04-16T05:04:13.963Z,1015.34
2023-04-16T05:05:14.841Z,1015.34
2023-04-16T05:06:15.613Z,1015.36
2023-04-16T05:07:16.473Z,1015.38
2023-04-16T05:08:17.275Z,1015.40
2023-04-16T05:09:18.105Z,1015.40
2023-04-16T05:10:18.944Z,1015.42
2023-04-16T05:11:19.761Z,1015.43
2023-04-16T05:12:20.594Z,1015.44
2023-04-16T05:13:21.435Z,1015.44
2023-04-16T05:14:22.276Z,1015.45
2023-04-16T05:15:23.081Z,1015.48
2023-04-16T05:16:23.953Z,1015.50
2023-04-16T05:17:24.769Z,1015.52
2023-04-16T05:18:25.569Z,1015.51
2023-04-16T05:19:26.399Z,1015.50
2023-04-16T05:20:27.226Z,1015.50
2023-04-16T05:21:28.048Z,1015.50
2023-04-16T05:22:28.886Z,1015.52
2023-04-16T05:23:29.706Z,1015.52
2023-04-16T05:24:30.543Z,1015.55
2023-04-16T05:25:31.379Z,1015.57
2023-04-16T05:26:32.197Z,1015.59
2023-04-16T05:27:33.027Z,1015.60
2023-04-16T05:28:33.859Z,1015.62
2023-04-16T05:29:34.708Z,1015.64
2023-04-16T05:30:35.532Z,1015.64
2023-04-16T05:31:36.345Z,1015.63
2023-04-16T05:32:37.195Z,1015.61
2023-04-16T05:33:37.991Z,1015.63
2023-04-16T05:34:38.838Z,1015.63
2023-04-16T05:35:39.663Z,1015.65
2023-04-16T05:36:40.492Z,1015.67
2023-04-16T05:37:41.318Z,1015.70
2023-04-16T05:38:42.178Z,1015.70
2023-04-16T05:39:43.001Z,1015.71
2023-04-16T05:40:43.837Z,1015.75
2023-04-16T05:41:44.712Z,1015.75
2023-04-16T05:42:45.605Z,1015.76
2023-04-16T05:43:46.454Z,1015.76
2023-04-16T05:44:47.307Z,1015.77
2023-04-16T05:45:48.150Z,1015.79
2023-04-16T05:46:48.950Z,1015.80
2023-04-16T05:47:49.810Z,1015.82
2023-04-16T05:48:50.599Z,1015.84
2023-04-16T05:49:51.434Z,1015.85
2023-04-16T05:50:52.261Z,1015.86
2023-04-16T05:51:53.098Z,1015.85
2023-04-16T05:52:53.931Z,1015.87
2023-04-16T05:53:54.761Z,1015.86
2023-04-16T05:54:55.574Z,1015.85
2023-04-16T05:55:56.398Z,1015.87
2023-04-16T05:56:57.223Z,1015.87
2023-04-16T05:57:58.049Z,1015.90
2023-04-16T05:58:58.887Z,1015.88
2023-04-16T05:59:59.736Z,1015.88
2023-04-16T06:01:00.538Z,1015.89
2023-04-16T06:02:01.424Z,1015.89
2023-04-16T06:03:02.461Z,1015.92
2023-04-16T06:04:03.169Z,1015.93
2023-04-16T06:05:03.545Z,1015.94
2023-04-16T06:06:04.443Z,1015.96
2023-04-16T06:07:05.235Z,1015.96
2023-04-16T06:08:06.065Z,1015.96
2023-04-16T06:09:06.915Z,1015.96
2023-04-16T06:10:07.741Z,1015.96
2023-04-16T06:11:08.589Z,1015.96
2023-04-16T06:12:09.407Z,1015.96
2023-04-16T06:13:10.222Z,1015.98
2023-04-16T06:14:11.040Z,1015.99
2023-04-16T06:15:11.911Z,1015.99
2023-04-16T06:16:12.744Z,1016.00
2023-04-16T06:17:13.553Z,1015.99
2023-04-16T06:18:14.433Z,1015.99
2023-04-16T06:19:15.203Z,1016.00
2023-04-16T06:20:16.040Z,1015.98
2023-04-16T06:21:16.864Z,1016.01
2023-04-16T06:22:17.683Z,1016.02
2023-04-16T06:23:18.522Z,1016.01
2023-04-16T06:24:19.347Z,1016.00
2023-04-16T06:25:20.213Z,1016.02
2023-04-16T06:26:21.030Z,1016.04
2023-04-16T06:27:21.873Z,1016.04
2023-04-16T06:28:22.693Z,1016.04
2023-04-16T06:29:33.521Z,1016.04
2023-04-16T06:30:25.263Z,1016.04
2023-04-16T06:31:25.100Z,1016.03
2023-04-16T06:32:25.963Z,1016.06
2023-04-16T06:33:26.770Z,1016.06
2023-04-16T06:34:27.572Z,1016.05
2023-04-16T06:35:28.404Z,1016.06
2023-04-16T06:36:29.263Z,1016.06
2023-04-16T06:37:30.092Z,1016.05
2023-04-16T06:38:30.914Z,1016.07
2023-04-16T06:39:31.735Z,1016.05
2023-04-16T06:40:32.589Z,1016.04
2023-04-16T06:41:33.407Z,1016.06
2023-04-16T06:42:34.237Z,1016.07
2023-04-16T06:43:35.056Z,1016.09
2023-04-16T06:44:35.905Z,1016.08
2023-04-16T06:45:36.749Z,1016.07
2023-04-16T06:46:37.578Z,1016.04
2023-04-16T06:47:38.465Z,1016.04
2023-04-16T06:48:39.276Z,1016.03
2023-04-16T06:49:40.093Z,1016.06
2023-04-16T06:50:40.929Z,1016.06
2023-04-16T06:51:41.749Z,1016.05
2023-04-16T06:52:42.593Z,1016.07
2023-04-16T06:53:43.439Z,1016.07
2023-04-16T06:54:44.262Z,1016.09
2023-04-16T06:55:45.107Z,1016.10
2023-04-16T06:56:45.932Z,1016.09
2023-04-16T06:57:46.755Z,1016.09
2023-04-16T06:58:47.577Z,1016.13
2023-04-16T06:59:48.417Z,1016.09
2023-04-16T07:00:49.311Z,1016.10
2023-04-16T07:01:50.154Z,1016.10
2023-04-16T07:02:51.146Z,1016.09
2023-04-16T07:03:51.728Z,1016.11
2023-04-16T07:04:52.214Z,1016.12
2023-04-16T07:05:53.043Z,1016.11
2023-04-16T07:06:53.862Z,1016.10
2023-04-16T07:07:54.682Z,1016.10
2023-04-16T07:08:55.511Z,1016.09
2023-04-16T07:09:56.337Z,1016.12
2023-04-16T07:10:57.162Z,1016.09
2023-04-16T07:11:57.996Z,1016.09
2023-04-16T07:12:58.824Z,1016.07
2023-04-16T07:13:59.648Z,1016.04
2023-04-16T07:15:00.472Z,1016.02
2023-04-16T07:16:01.369Z,1016.01
2023-04-16T07:17:02.148Z,1016.01
2023-04-16T07:18:02.987Z,1016.04
2023-04-16T07:19:03.782Z,1016.04
2023-04-16T07:20:04.611Z,1016.04
2023-04-16T07:21:05.449Z,1016.04
2023-04-16T07:22:06.274Z,1016.04
2023-04-16T07:23:07.111Z,1016.03
2023-04-16T07:24:07.932Z,1016.05
2023-04-16T07:25:08.797Z,1016.05
2023-04-16T07:26:09.601Z,1016.05
2023-04-16T07:27:10.424Z,1016.07
2023-04-16T07:28:11.259Z,1016.09
2023-04-16T07:29:12.339Z,1016.08
2023-04-16T07:30:12.780Z,1016.10
2023-04-16T07:31:13.628Z,1016.10
2023-04-16T07:32:15.475Z,1016.09
2023-04-16T07:33:15.027Z,1016.09
2023-04-16T07:34:15.844Z,1016.13
2023-04-16T07:35:16.673Z,1016.15
2023-04-16T07:36:17.486Z,1016.16
2023-04-16T07:37:18.344Z,1016.18
2023-04-16T07:38:19.147Z,1016.21
2023-04-16T07:39:19.982Z,1016.21
2023-04-16T07:40:20.809Z,1016.19
2023-04-16T07:41:21.642Z,1016.24
2023-04-16T07:42:22.487Z,1016.20
2023-04-16T07:43:23.302Z,1016.22
2023-04-16T07:44:24.128Z,1016.24
2023-04-16T07:45:24.961Z,1016.24
2023-04-16T07:46:30.461Z,1016.25
2023-04-16T07:47:27.543Z,1016.25
2023-04-16T07:48:27.331Z,1016.28
2023-04-16T07:49:28.172Z,1016.28
2023-04-16T07:50:29.002Z,1016.29
2023-04-16T07:51:29.827Z,1016.33
2023-04-16T07:52:30.648Z,1016.28
2023-04-16T07:53:31.472Z,1016.30
2023-04-16T07:54:32.302Z,1016.31
2023-04-16T07:55:33.117Z,1016.32
2023-04-16T07:56:33.981Z,1016.33
2023-04-16T07:57:34.794Z,1016.34
2023-04-16T07:58:35.631Z,1016.33
2023-04-16T07:59:36.450Z,1016.32
2023-04-16T08:00:37.285Z,1016.32
2023-04-16T08:01:38.131Z,1016.32
2023-04-16T08:02:39.094Z,1016.31
2023-04-16T08:03:39.618Z,1016.33
2023-04-16T08:04:40.237Z,1016.35
2023-04-16T08:05:40.665Z,1016.35
2023-04-16T08:06:41.512Z,1016.35
2023-04-16T08:07:42.332Z,1016.37
2023-04-16T08:08:43.154Z,1016.38
2023-04-16T08:09:43.981Z,1016.40
2023-04-16T08:10:44.820Z,1016.40
2023-04-16T08:11:45.655Z,1016.39
2023-04-16T08:12:46.474Z,1016.40
2023-04-16T08:13:47.301Z,1016.42
2023-04-16T08:14:48.135Z,1016.40
2023-04-16T08:15:49.000Z,1016.39
2023-04-16T08:16:49.821Z,1016.39
2023-04-16T08:17:50.679Z,1016.39
2023-04-16T08:18:51.459Z,1016.40
2023-04-16T08:19:52.292Z,1016.41
2023-04-16T08:20:53.130Z,1016.43
2023-04-16T08:21:53.959Z,1016.46
2023-04-16T08:22:54.786Z,1016.47
2023-04-16T08:23:55.593Z,1016.48
2023-04-16T08:24:56.422Z,1016.48
2023-04-16T08:25:57.268Z,1016.50
2023-04-16T08:27:08.118Z,1016.52
2023-04-16T08:27:59.811Z,1016.54
2023-04-16T08:28:59.643Z,1016.54
2023-04-16T08:30:01.386Z,1016.54
2023-04-16T08:31:01.251Z,1016.54
2023-04-16T08:32:02.120Z,1016.57
2023-04-16T08:33:03.048Z,1016.58
2023-04-16T08:34:03.418Z,1016.61
2023-04-16T08:35:04.245Z,1016.62
2023-04-16T08:36:05.118Z,1016.64
2023-04-16T08:37:06.017Z,1016.64
2023-04-16T08:38:06.796Z,1016.67
2023-04-16T08:39:07.810Z,1016.69
2023-04-16T08:40:08.173Z,1016.70
2023-04-16T08:41:09.021Z,1016.71
2023-04-16T08:42:09.841Z,1016.72
2023-04-16T08:43:10.661Z,1016.74
2023-04-16T08:44:11.515Z,1016.76
2023-04-16T08:45:12.317Z,1016.76
2023-04-16T08:46:13.218Z,1016.76
2023-04-16T08:47:14.013Z,1016.76
2023-04-16T08:48:14.825Z,1016.76
2023-04-16T08:49:15.653Z,1016.77
2023-04-16T08:50:16.491Z,1016.77
2023-04-16T08:51:17.319Z,1016.79
2023-04-16T08:52:18.144Z,1016.79
2023-04-16T08:53:18.969Z,1016.79
2023-04-16T08:54:19.829Z,1016.79
2023-04-16T08:55:20.637Z,1016.79
2023-04-16T08:56:21.469Z,1016.81
2023-04-16T08:57:22.298Z,1016.81
2023-04-16T08:58:23.133Z,1016.82
2023-04-16T08:59:23.978Z,1016.82
2023-04-16T09:00:24.791Z,1016.84
2023-04-16T09:01:25.649Z,1016.83
2023-04-16T09:02:26.778Z,1016.83
2023-04-16T09:03:27.491Z,1016.84
2023-04-16T09:04:27.904Z,1016.85
2023-04-16T09:05:28.709Z,1016.84
2023-04-16T09:06:29.539Z,1016.87
2023-04-16T09:07:30.512Z,1016.87
2023-04-16T09:08:31.332Z,1016.89
2023-04-16T09:09:34.553Z,1016.89
2023-04-16T09:10:32.944Z,1016.92
2023-04-16T09:11:33.763Z,1016.93
2023-04-16T09:12:34.600Z,1016.93
2023-04-16T09:13:35.432Z,1016.98
2023-04-16T09:14:36.271Z,1016.96
2023-04-16T09:15:37.098Z,1016.99
2023-04-16T09:16:37.956Z,1016.99
2023-04-16T09:17:38.849Z,1017.00
2023-04-16T09:18:39.648Z,1016.98
2023-04-16T09:19:40.490Z,1016.97
2023-04-16T09:20:41.305Z,1016.98
2023-04-16T09:21:42.152Z,1017.02
2023-04-16T09:22:42.974Z,1017.02
2023-04-16T09:23:43.810Z,1017.03
2023-04-16T09:24:44.628Z,1017.04
2023-04-16T09:25:45.446Z,1017.05
2023-04-16T09:26:46.304Z,1017.04
2023-04-16T09:27:47.114Z,1017.05
2023-04-16T09:28:47.937Z,1017.05
2023-04-16T09:29:48.773Z,1017.05
2023-04-16T09:30:49.600Z,1017.06
2023-04-16T09:31:50.466Z,1017.06
2023-04-16T09:32:51.361Z,1017.05
2023-04-16T09:33:52.157Z,1017.07
2023-04-16T09:34:52.983Z,1017.05
2023-04-16T09:35:53.822Z,1017.05
2023-04-16T09:36:54.675Z,1017.04
2023-04-16T09:37:55.485Z,1017.05
2023-04-16T09:38:57.679Z,1017.04
2023-04-16T09:39:57.076Z,1017.02
2023-04-16T09:40:57.918Z,1017.03
2023-04-16T09:41:58.739Z,1017.04
2023-04-16T09:42:59.559Z,1017.05
2023-04-16T09:44:00.396Z,1017.05
2023-04-16T09:45:04.176Z,1017.04
2023-04-16T09:46:05.378Z,1017.04
2023-04-16T09:47:03.622Z,1017.05
2023-04-16T09:48:03.551Z,1017.05
2023-04-16T09:49:04.379Z,1017.05
2023-04-16T09:50:05.227Z,1017.06
2023-04-16T09:51:06.034Z,1017.05
2023-04-16T09:52:06.880Z,1017.05
2023-04-16T09:53:07.709Z,1017.05
2023-04-16T09:54:08.534Z,1017.05
2023-04-16T09:55:09.346Z,1017.07
2023-04-16T09:56:10.176Z,1017.08
2023-04-16T09:57:11.022Z,1017.09
2023-04-16T09:58:11.851Z,1017.07
2023-04-16T09:59:12.670Z,1017.09
2023-04-16T10:00:13.488Z,1017.08
2023-04-16T10:01:14.352Z,1017.10
2023-04-16T10:02:16.356Z,1017.11
2023-04-16T10:03:16.078Z,1017.12
2023-04-16T10:04:16.977Z,1017.12
2023-04-16T10:05:17.803Z,1017.14
2023-04-16T10:06:18.654Z,1017.12
2023-04-16T10:07:19.489Z,1017.13
2023-04-16T10:08:20.308Z,1017.14
2023-04-16T10:09:21.128Z,1017.15
2023-04-16T10:10:21.956Z,1017.14
2023-04-16T10:11:22.803Z,1017.14
2023-04-16T10:12:23.629Z,1017.13
2023-04-16T10:13:24.447Z,1017.13
2023-04-16T10:14:25.292Z,1017.15
2023-04-16T10:15:26.124Z,1017.15
2023-04-16T10:16:27.044Z,1017.15
2023-04-16T10:17:27.889Z,1017.14
2023-04-16T10:18:28.689Z,1017.14
2023-04-16T10:19:29.489Z,1017.15
2023-04-16T10:20:30.360Z,1017.14
2023-04-16T10:21:31.178Z,1017.15
2023-04-16T10:22:31.997Z,1017.15
2023-04-16T10:23:32.821Z,1017.15
2023-04-16T10:24:33.650Z,1017.13
2023-04-16T10:25:34.489Z,1017.14
2023-04-16T10:26:35.315Z,1017.13
2023-04-16T10:27:36.156Z,1017.16
2023-04-16T10:28:36.992Z,1017.14
2023-04-16T10:29:37.794Z,1017.13
2023-04-16T10:30:38.697Z,1017.14
2023-04-16T10:31:39.548Z,1017.14
2023-04-16T10:32:40.367Z,1017.14
2023-04-16T10:33:41.205Z,1017.14
2023-04-16T10:34:42.024Z,1017.12
2023-04-16T10:35:42.836Z,1017.12
2023-04-16T10:36:43.676Z,1017.11
2023-04-16T10:37:44.502Z,1017.12
2023-04-16T10:38:45.318Z,1017.13
2023-04-16T10:39:46.165Z,1017.13
2023-04-16T10:40:46.992Z,1017.16
2023-04-16T10:41:47.814Z,1017.14
2023-04-16T10:42:48.627Z,1017.17
2023-04-16T10:43:49.458Z,1017.14
2023-04-16T10:44:50.284Z,1017.14
2023-04-16T10:45:51.116Z,1017.15
2023-04-16T10:46:51.951Z,1017.16
2023-04-16T10:47:52.788Z,1017.16
2023-04-16T10:48:53.611Z,1017.16
2023-04-16T10:49:54.414Z,1017.19
2023-04-16T10:50:55.227Z,1017.17
2023-04-16T10:51:56.067Z,1017.20
2023-04-16T10:52:56.906Z,1017.18
2023-04-16T10:53:57.742Z,1017.20
2023-04-16T10:54:58.552Z,1017.20
2023-04-16T10:55:59.381Z,1017.21
2023-04-16T10:57:01.670Z,1017.23
2023-04-16T10:58:00.761Z,1017.22
2023-04-16T10:59:01.586Z,1017.23
2023-04-16T11:00:02.436Z,1017.22
2023-04-16T11:01:03.237Z,1017.24
2023-04-16T11:02:04.151Z,1017.24
2023-04-16T11:03:05.173Z,1017.23
2023-04-16T11:04:06.220Z,1017.23
2023-04-16T11:05:06.666Z,1017.24
2023-04-16T11:06:07.491Z,1017.25
2023-04-16T11:07:08.327Z,1017.25
2023-04-16T11:08:09.149Z,1017.25
2023-04-16T11:09:10.161Z,1017.27
2023-04-16T11:10:10.586Z,1017.25
2023-04-16T11:11:11.425Z,1017.24
2023-04-16T11:12:12.255Z,1017.26
2023-04-16T11:13:13.076Z,1017.24
2023-04-16T11:14:13.915Z,1017.24
2023-04-16T11:15:14.732Z,1017.24
2023-04-16T11:16:15.612Z,1017.25
2023-04-16T11:17:16.567Z,1017.23
2023-04-16T11:18:17.372Z,1017.25
2023-04-16T11:19:18.239Z,1017.25
2023-04-16T11:20:20.421Z,1017.25
2023-04-16T11:21:19.650Z,1017.26
2023-04-16T11:22:20.473Z,1017.25
2023-04-16T11:23:21.269Z,1017.27
2023-04-16T11:24:22.582Z,1017.27
2023-04-16T11:25:22.641Z,1017.29
2023-04-16T11:26:23.453Z,1017.26
2023-04-16T11:27:24.303Z,1017.28
2023-04-16T11:28:25.960Z,1017.29
2023-04-16T11:29:26.068Z,1017.30
2023-04-16T11:30:26.345Z,1017.31
2023-04-16T11:31:27.308Z,1017.32
2023-04-16T11:32:27.819Z,1017.32
2023-04-16T11:33:28.611Z,1017.34
2023-04-16T11:34:29.475Z,1017.35
2023-04-16T11:35:30.263Z,1017.35
2023-04-16T11:36:31.089Z,1017.37
2023-04-16T11:37:31.943Z,1017.35
2023-04-16T11:38:32.758Z,1017.35
2023-04-16T11:39:33.597Z,1017.36
2023-04-16T11:40:34.399Z,1017.36
2023-04-16T11:41:35.224Z,1017.38
2023-04-16T11:42:36.126Z,1017.40
2023-04-16T11:43:36.943Z,1017.38
2023-04-16T11:44:37.766Z,1017.38
2023-04-16T11:45:38.582Z,1017.39
2023-04-16T11:46:39.492Z,1017.41
2023-04-16T11:47:40.401Z,1017.40
2023-04-16T11:48:41.188Z,1017.43
2023-04-16T11:49:42.018Z,1017.45
2023-04-16T11:50:42.827Z,1017.42
2023-04-16T11:51:43.664Z,1017.42
2023-04-16T11:52:44.499Z,1017.44
2023-04-16T11:53:45.320Z,1017.43
2023-04-16T11:54:46.169Z,1017.44
2023-04-16T11:55:46.994Z,1017.44
2023-04-16T11:56:47.872Z,1017.45
2023-04-16T11:57:48.691Z,1017.45
2023-04-16T11:58:49.521Z,1017.48
2023-04-16T12:00:01.725Z,1017.49
2023-04-16T12:00:52.070Z,1017.48
2023-04-16T12:01:51.996Z,1017.50
2023-04-16T12:02:52.992Z,1017.51
2023-04-16T12:03:53.616Z,1017.51
2023-04-16T12:04:54.279Z,1017.50
2023-04-16T12:05:54.635Z,1017.50
2023-04-16T12:06:55.473Z,1017.50
2023-04-16T12:07:56.292Z,1017.51
2023-04-16T12:08:57.121Z,1017.50
2023-04-16T12:09:57.955Z,1017.52
2023-04-16T12:10:58.769Z,1017.52
2023-04-16T12:11:59.621Z,1017.51
2023-04-16T12:13:00.460Z,1017.52
2023-04-16T12:14:01.277Z,1017.50
2023-04-16T12:15:02.121Z,1017.50
2023-04-16T12:16:02.920Z,1017.51
2023-04-16T12:17:03.845Z,1017.50